Alamo, ND (58830)

2:57 PM CDT on August 26, 2016 (GMT -0500)
KNDALAMO3 | | Change Station

Elev 2090 ft 48.49 °N, 103.51 °W | Updated 4 minutes ago

Clear
Clear
73.2 °F
Feels Like 77 °F
N
11.0
Wind Variable Wind from WNW
Gusts 22.0 mph

Today
High -- | Low -- °F
--% Chance of Precip.
Yesterday
High -- | Low -- °F
Precip. -- in
Pressure 29.98 in
Visibility 9.0 miles
Clouds Clear
Heat Index 77 °F
Dew Point 44 °F
Humidity 35%
Rainfall 0.00 in
Snow Depth Not available.
7:03 AM 8:46 PM
Waning Crescent, 32% visible
METAR KD50 261935Z AUTO 22008KT 9SM CLR 23/07 A2998 RMK AO2 LTG DSNT NW
Pressure 29.98 in
Visibility 9.0 miles
Clouds Clear
Heat Index 77 °F
Dew Point 44 °F
Humidity 35%
Rainfall 0.00 in
Snow Depth Not available.
7:03 AM 8:46 PM
Waning Crescent, 32% visible
METAR KD50 261935Z AUTO 22008KT 9SM CLR 23/07 A2998 RMK AO2 LTG DSNT NW

10-Day Weather Forecast

Almanac

Astronomy

Aug. 26, 2016 Rise Set
Actual Time
Civil Twilight
Nautical Twilight
Astronomical Twilight
Moon
Length of Visible Light
Length of Day
Tomorrow will be .
, % of the Moon is Illuminated

Today's Extremes

State Highs State Lows

Community

WunderPhotos

Upload Photos

1,935,195 photos uploaded!

WunderBlog® & News

Nearby

Air Quality

  Air Quality AQ Index Pollutant
Not available.

Snow Depth

Station Depth Elevation

Earthquake Activity

City Distance Mag. Time & Date
Minimum magnitude displayed is 2.5.

Coastal Water Temperatures

Place Temperature

Stations

Nearby Weather Stations

Station Location Temp. Windchill Dew Point Humidity Wind Precip. Elev Updated Type
                   

Watches & Warnings

There are currently no watches in effect.